Granville, Tennessee
Current Conditions -  °F | °C
As of 8:15 PM on Sunday 21 Dec 2014 (Local Time) from KSRB Reporting Station
Overcast Overcast  
Wind Chill: 44°   Ceiling: 4100
Heat Index: 46°   Visibility: 10mi
Dew Point: 39°   Wind: 5mph
Humidity: 76%   Direction: 170°S
Pressure: 30.07"   Gusts: NA
Location:  36.27°N, 85.8°W
Report Text: KSRB 220215Z AUTO 17004KT 10SM FEW031 OVC041 08/04 A3007 RMK
Loading
Personal Weather Stations






























Interactive Weather Map New forecast layout! Learn more

10-Day Weather Forecast

Advertisements
Track Severe Weather on mobile